Aeroporto :
LOGIN :

Iscrizione | Disclaimer

   EN    FR    IT 

 










Sommario :    VFR   VFR Marginale   IFR   IFR Intensivo   IFR Molto Intensivo
Visibilità : 
Base nubi : 
>= 8 km
>= 3000ft
5 / 8 km
1000 / 3000 ft
1500m / 5 km
500 / 1000 ft
800 / 1500m
200 / 500 ft
< 800m
< 200 ft
Simboli :   Temporali  Nebbia  Neve Forte  Precipitazioni Forti  Vento > 20 kt
SIGMETs :   Varie  Temporali  Ghiacco  Turbolenza  Onda orograficha  Ceneri Vulcaniche






- Altitudine del aeroporto : 17 ft
- Codice IATA : GRS


LIRS - Grosseto

ULTIMO METAR :
  • 020555Z 08003KT 9999 FEW005 SCT015 10/07 Q1008

METARs OBSOLETI :
  • 020455Z 11004KT 9999 FEW005 SCT010 10/07 Q1008 RMK BKN VIS MIN 9999 WIND THR03 /////KT WIND THR21 11003KT BLU
  • 012055Z VRB02KT 6000 -RA SCT010 SCT020 12/09 Q1006
  • 020355Z 14004KT 8000 FEW005 SCT010 11/08 Q1007 RMK OVC VIS MIN 8000 WIND THR03 /////KT WIND THR21 13004KT BLU
  • 020255Z 15005KT 6000 SCT005 SCT010 11/08 Q1007 RMK OVC VIS MIN 6000 WIND THR03 /////KT WIND THR21 VRB03KT WHT
  • 020155Z 16004KT 6000 -RA SCT005 SCT010 11/08 Q1007 RMK OVC VIS MIN 6000 WIND THR03 /////KT WIND THR21 17003KT WHT

Previsioni scadute.



MetMap, La meteo Aeronautica in un colpo d'occhio ! - Copyright ORBIFLY Dicembre 2007 - Disclaimer

ORBIFLY MET'MAP TEAM :

Programmazione e sviluppo : Alexandra Zaïnal
Concezione : Baudouin d'Aumeries
Supporto tecnico e logistico : Manuel Goepfert
Aiuto : Marc-Olivier Méhu
Aiuto per la traduzione : Arnaldo La Scala




FONTI E CREDITI :

   NOAA